createdAt,value
2019-03-15T00:02:39.536Z,8.10
2019-03-15T00:05:30.197Z,8.20
2019-03-15T00:11:05.599Z,8.10
2019-03-15T00:13:54.481Z,8.30
2019-03-15T00:16:43.503Z,8.00
2019-03-15T00:22:31.469Z,7.90
2019-03-15T00:25:31.887Z,8.20
2019-03-15T00:31:20.046Z,7.60
2019-03-15T00:34:08.622Z,7.80
2019-03-15T00:36:57.630Z,8.00
2019-03-15T00:42:46.951Z,7.70
2019-03-15T00:45:28.021Z,7.90
2019-03-15T00:48:09.376Z,8.00
2019-03-15T00:50:50.894Z,8.00
2019-03-15T00:53:32.710Z,8.00
2019-03-15T00:56:13.816Z,7.90
2019-03-15T00:58:55.406Z,7.90
2019-03-15T01:01:36.999Z,7.90
2019-03-15T01:04:18.571Z,7.90
2019-03-15T01:07:00.186Z,8.00
2019-03-15T01:09:41.407Z,8.00
2019-03-15T01:12:22.894Z,7.70
2019-03-15T01:15:03.704Z,7.60
2019-03-15T01:17:45.091Z,7.70
2019-03-15T01:20:26.672Z,7.70
2019-03-15T01:23:08.256Z,7.70
2019-03-15T01:25:49.681Z,7.60
2019-03-15T01:28:31.172Z,7.70
2019-03-15T01:31:12.845Z,7.60
2019-03-15T01:33:54.466Z,7.60
2019-03-15T01:36:35.593Z,7.60
2019-03-15T01:39:17.268Z,7.60
2019-03-15T01:41:58.566Z,7.60
2019-03-15T01:44:39.295Z,7.70
2019-03-15T01:47:20.436Z,7.70
2019-03-15T01:50:01.949Z,7.70
2019-03-15T01:52:43.596Z,7.70
2019-03-15T01:55:24.996Z,7.80
2019-03-15T01:58:06.331Z,7.80
2019-03-15T02:00:47.636Z,8.00
2019-03-15T02:03:28.879Z,8.10
2019-03-15T02:06:10.275Z,8.00
2019-03-15T02:08:52.500Z,8.20
2019-03-15T02:11:33.567Z,8.00
2019-03-15T02:14:15.046Z,8.00
2019-03-15T02:16:54.661Z,7.90
2019-03-15T02:19:43.435Z,8.00
2019-03-15T02:22:33.513Z,8.10
2019-03-15T02:25:22.272Z,8.10
2019-03-15T02:31:20.837Z,7.70
2019-03-15T02:48:59.436Z,7.60
2019-03-15T02:51:48.156Z,7.70
2019-03-15T02:57:26.863Z,8.00
2019-03-15T03:00:08.100Z,7.80
2019-03-15T03:02:49.597Z,7.80
2019-03-15T03:05:30.432Z,8.00
2019-03-15T03:08:10.124Z,7.90
2019-03-15T03:10:59.118Z,8.10
2019-03-15T03:13:47.768Z,8.00
2019-03-15T03:16:36.371Z,7.90
2019-03-15T03:19:24.994Z,7.90
2019-03-15T03:22:13.763Z,8.00
2019-03-15T03:25:14.255Z,8.00
2019-03-15T03:30:51.630Z,8.00
2019-03-15T03:33:51.997Z,7.90
2019-03-15T03:36:44.625Z,7.90
2019-03-15T03:39:20.811Z,7.90
2019-03-15T03:42:09.496Z,7.90
2019-03-15T03:44:58.429Z,8.00
2019-03-15T03:47:47.440Z,8.00
2019-03-15T03:50:36.074Z,7.80
2019-03-15T03:53:24.700Z,7.80
2019-03-15T03:56:06.383Z,7.70
2019-03-15T03:58:47.998Z,8.00
2019-03-15T04:01:29.542Z,8.00
2019-03-15T04:04:10.924Z,7.90
2019-03-15T04:06:51.947Z,8.00
2019-03-15T04:09:33.489Z,7.90
2019-03-15T04:12:15.037Z,8.00
2019-03-15T04:14:56.635Z,7.90
2019-03-15T04:17:37.739Z,7.80
2019-03-15T04:20:17.460Z,7.80
2019-03-15T04:23:06.350Z,7.70
2019-03-15T04:29:04.700Z,7.80
2019-03-15T04:35:02.775Z,8.00
2019-03-15T04:38:03.536Z,7.80
2019-03-15T04:40:42.113Z,7.70
2019-03-15T04:43:42.366Z,7.70
2019-03-15T04:46:21.355Z,7.60
2019-03-15T04:49:10.207Z,7.70
2019-03-15T04:52:10.378Z,7.70
2019-03-15T04:54:49.132Z,7.70
2019-03-15T04:57:29.957Z,8.00
2019-03-15T05:00:11.651Z,7.80
2019-03-15T05:02:52.749Z,7.80
2019-03-15T05:05:33.867Z,7.80
2019-03-15T05:08:13.985Z,7.70
2019-03-15T05:14:12.068Z,7.60
2019-03-15T05:20:10.411Z,8.00
2019-03-15T05:23:11.229Z,8.00
2019-03-15T05:25:49.979Z,8.10
2019-03-15T05:28:38.683Z,8.20
2019-03-15T05:31:27.918Z,8.00
2019-03-15T05:34:16.875Z,8.20
2019-03-15T05:37:05.736Z,8.30
2019-03-15T05:39:54.331Z,8.40
2019-03-15T05:42:42.917Z,8.50
2019-03-15T05:45:31.480Z,8.60
2019-03-15T05:48:20.797Z,8.60
2019-03-15T05:51:09.449Z,8.60
2019-03-15T05:53:58.068Z,9.00
2019-03-15T05:56:39.586Z,8.90
2019-03-15T05:59:20.380Z,8.50
2019-03-15T06:02:01.914Z,8.90
2019-03-15T06:04:43.541Z,8.80
2019-03-15T06:07:25.188Z,8.80
2019-03-15T06:10:06.585Z,8.80
2019-03-15T06:12:47.678Z,8.80
2019-03-15T06:15:28.645Z,8.70
2019-03-15T06:18:09.314Z,8.90
2019-03-15T06:20:50.900Z,8.80
2019-03-15T06:23:32.324Z,9.00
2019-03-15T06:26:13.184Z,9.30
2019-03-15T06:28:54.640Z,9.00
2019-03-15T06:31:34.585Z,9.10
2019-03-15T06:34:23.883Z,9.00
2019-03-15T06:37:13.028Z,8.90
2019-03-15T06:43:13.277Z,9.10
2019-03-15T06:46:15.780Z,9.10
2019-03-15T06:49:03.851Z,9.10
2019-03-15T06:51:42.802Z,9.10
2019-03-15T06:54:31.760Z,9.10
2019-03-15T06:57:12.769Z,9.10
2019-03-15T06:59:53.795Z,9.20
2019-03-15T07:02:35.238Z,9.20
2019-03-15T07:05:16.887Z,9.40
2019-03-15T07:07:58.629Z,9.70
2019-03-15T07:10:40.132Z,9.60
2019-03-15T07:13:21.801Z,9.60
2019-03-15T07:16:03.410Z,9.70
2019-03-15T07:18:44.964Z,9.70
2019-03-15T07:21:24.588Z,9.80
2019-03-15T07:24:24.443Z,10.00
2019-03-15T07:32:54.504Z,10.10
2019-03-15T07:35:57.308Z,10.20
2019-03-15T07:38:33.883Z,10.20
2019-03-15T07:41:25.314Z,10.50
2019-03-15T07:44:13.177Z,10.20
2019-03-15T07:47:01.802Z,10.10
2019-03-15T07:52:59.515Z,10.10
2019-03-15T07:59:08.437Z,10.40
2019-03-15T08:04:56.132Z,10.50
2019-03-15T08:10:55.160Z,10.00
2019-03-15T08:13:44.837Z,10.00
2019-03-15T08:19:32.480Z,9.90
2019-03-15T08:25:19.924Z,9.50
2019-03-15T08:34:02.881Z,9.70
2019-03-15T08:45:45.528Z,9.50
2019-03-15T08:48:48.466Z,9.50
2019-03-15T08:51:24.726Z,9.40
2019-03-15T08:54:25.174Z,9.30
2019-03-15T08:56:55.871Z,9.30
2019-03-15T08:59:36.768Z,9.30
2019-03-15T09:02:18.083Z,9.40
2019-03-15T09:04:59.297Z,9.60
2019-03-15T09:07:40.765Z,9.70
2019-03-15T09:10:23.847Z,10.10
2019-03-15T09:13:04.745Z,10.10
2019-03-15T09:15:45.485Z,10.50
2019-03-15T09:18:26.969Z,10.50
2019-03-15T09:21:08.545Z,10.70
2019-03-15T09:23:49.920Z,11.00
2019-03-15T09:26:31.495Z,11.00
2019-03-15T09:29:12.648Z,11.10
2019-03-15T09:32:04.924Z,11.20
2019-03-15T09:34:36.523Z,11.40
2019-03-15T09:37:16.587Z,11.30
2019-03-15T09:46:24.242Z,11.50
2019-03-15T09:49:02.905Z,11.50
2019-03-15T09:51:51.648Z,11.40
2019-03-15T09:54:54.289Z,11.40
2019-03-15T09:57:31.210Z,11.10
2019-03-15T10:00:19.824Z,11.10
2019-03-15T10:03:21.202Z,11.10
2019-03-15T10:05:58.869Z,11.20
2019-03-15T10:08:47.515Z,11.10
2019-03-15T10:11:36.131Z,11.30
2019-03-15T10:14:38.998Z,11.00
2019-03-15T10:20:24.703Z,11.00
2019-03-15T10:23:06.084Z,11.10
2019-03-15T10:26:03.748Z,11.30
2019-03-15T10:28:42.256Z,11.10
2019-03-15T10:37:35.569Z,11.20
2019-03-15T10:40:17.267Z,11.10
2019-03-15T10:42:58.649Z,11.20
2019-03-15T10:45:40.044Z,11.40
2019-03-15T10:48:25.401Z,11.30
2019-03-15T10:51:04.154Z,11.10
2019-03-15T10:53:44.270Z,11.00
2019-03-15T11:05:19.258Z,10.90
2019-03-15T11:08:07.841Z,10.80
2019-03-15T11:10:56.831Z,10.90
2019-03-15T11:13:45.826Z,10.70
2019-03-15T11:16:34.416Z,10.90
2019-03-15T11:19:23.320Z,10.80
2019-03-15T11:22:11.932Z,10.90
2019-03-15T11:25:00.686Z,10.80
2019-03-15T11:27:49.303Z,10.80
2019-03-15T11:30:37.997Z,11.00
2019-03-15T11:33:38.339Z,10.70
2019-03-15T11:36:16.906Z,10.70
2019-03-15T11:42:14.890Z,10.80
2019-03-15T11:45:02.670Z,10.80
2019-03-15T11:48:03.293Z,10.80
2019-03-15T11:50:42.027Z,10.90
2019-03-15T11:53:30.570Z,10.90
2019-03-15T11:59:14.797Z,11.10
2019-03-15T12:02:04.532Z,11.10
2019-03-15T12:04:53.893Z,11.40
2019-03-15T12:07:42.912Z,10.90
2019-03-15T12:13:40.757Z,11.20
2019-03-15T12:16:29.395Z,11.50
2019-03-15T12:19:18.068Z,11.70
2019-03-15T12:22:06.889Z,11.80
2019-03-15T12:27:56.183Z,12.00
2019-03-15T12:30:44.805Z,12.00
2019-03-15T12:33:33.774Z,12.00
2019-03-15T12:42:06.365Z,12.40
2019-03-15T12:44:47.078Z,12.70
2019-03-15T12:47:28.658Z,12.90
2019-03-15T12:50:08.549Z,13.30
2019-03-15T12:56:04.324Z,13.00
2019-03-15T12:58:43.352Z,13.10
2019-03-15T13:04:41.999Z,13.30
2019-03-15T13:07:30.840Z,13.40
2019-03-15T13:10:31.759Z,13.40
2019-03-15T13:13:10.313Z,13.30
2019-03-15T13:15:59.678Z,13.50
2019-03-15T13:19:02.951Z,13.50
2019-03-15T13:27:37.019Z,12.70
2019-03-15T13:33:49.219Z,12.20
2019-03-15T13:42:23.270Z,11.90
2019-03-15T13:45:04.465Z,11.80
2019-03-15T13:47:45.659Z,11.80
2019-03-15T13:50:27.590Z,11.80
2019-03-15T13:53:08.973Z,12.00
2019-03-15T13:55:50.451Z,11.90
2019-03-15T13:58:31.932Z,11.90
2019-03-15T14:01:13.671Z,11.90
2019-03-15T14:03:54.666Z,11.80
2019-03-15T14:06:36.047Z,11.70
2019-03-15T14:09:17.330Z,11.70
2019-03-15T14:11:59.082Z,11.60
2019-03-15T14:14:38.759Z,11.60
2019-03-15T14:17:27.937Z,11.60
2019-03-15T14:23:25.703Z,11.70
2019-03-15T14:29:23.822Z,11.60
2019-03-15T14:32:26.424Z,11.60
2019-03-15T14:35:02.793Z,11.60
2019-03-15T14:37:51.418Z,11.70
2019-03-15T14:40:40.169Z,11.70
2019-03-15T14:46:52.053Z,12.10
2019-03-15T14:52:37.484Z,12.10
2019-03-15T14:55:26.317Z,12.10
2019-03-15T14:58:44.105Z,12.00
2019-03-15T15:01:33.198Z,12.00
2019-03-15T15:04:21.777Z,11.80
2019-03-15T15:07:10.395Z,11.80
2019-03-15T15:09:59.162Z,11.70
2019-03-15T15:12:47.781Z,11.70
2019-03-15T15:15:36.660Z,11.60
2019-03-15T15:18:25.305Z,11.70
2019-03-15T15:21:13.921Z,11.50
2019-03-15T15:24:03.130Z,11.60
2019-03-15T15:26:51.773Z,11.60
2019-03-15T15:29:40.422Z,11.70
2019-03-15T15:32:29.207Z,11.30
2019-03-15T15:35:17.923Z,11.00
2019-03-15T15:50:16.736Z,10.00
2019-03-15T15:52:55.690Z,9.90
2019-03-15T15:58:40.036Z,9.80
2019-03-15T16:01:28.937Z,9.70
2019-03-15T16:04:17.565Z,9.70
2019-03-15T16:07:06.195Z,9.70
2019-03-15T16:09:55.147Z,9.60
2019-03-15T16:18:48.388Z,9.50
2019-03-15T16:21:50.800Z,9.50
2019-03-15T16:24:29.721Z,9.50
2019-03-15T16:33:12.848Z,9.60
2019-03-15T16:36:15.833Z,9.50
2019-03-15T16:38:52.168Z,9.60
2019-03-15T16:41:40.833Z,9.70
2019-03-15T16:47:24.941Z,10.00
2019-03-15T16:50:25.384Z,9.90
2019-03-15T16:53:04.840Z,9.70
2019-03-15T16:56:05.170Z,9.70
2019-03-15T16:58:56.109Z,9.50
2019-03-15T17:01:34.580Z,10.10
2019-03-15T17:04:23.539Z,9.50
2019-03-15T17:07:26.140Z,9.80
2019-03-15T17:10:02.504Z,10.10
2019-03-15T17:13:03.279Z,9.90
2019-03-15T17:16:00.791Z,9.80
2019-03-15T17:18:42.488Z,9.80
2019-03-15T17:21:23.500Z,9.80
2019-03-15T17:24:04.976Z,9.60
2019-03-15T17:26:45.851Z,9.50
2019-03-15T17:29:27.381Z,9.70
2019-03-15T17:32:08.974Z,9.70
2019-03-15T17:34:50.551Z,9.70
2019-03-15T17:37:32.064Z,9.80
2019-03-15T17:40:13.719Z,9.90
2019-03-15T17:42:55.074Z,9.90
2019-03-15T17:45:36.125Z,9.90
2019-03-15T17:48:17.393Z,10.00
2019-03-15T17:50:58.712Z,10.00
2019-03-15T17:53:40.583Z,9.90
2019-03-15T17:56:21.852Z,10.10
2019-03-15T17:59:11.897Z,10.00
2019-03-15T18:01:44.993Z,10.10
2019-03-15T18:04:26.761Z,10.10
2019-03-15T18:07:08.289Z,10.00
2019-03-15T18:09:49.586Z,10.10
2019-03-15T18:12:31.083Z,10.10
2019-03-15T18:15:12.549Z,10.10
2019-03-15T18:17:53.405Z,10.00
2019-03-15T18:20:34.691Z,10.20
2019-03-15T18:23:16.081Z,10.40
2019-03-15T18:25:57.770Z,10.20
2019-03-15T18:28:39.273Z,10.20
2019-03-15T18:31:20.768Z,10.20
2019-03-15T18:34:01.819Z,10.30
2019-03-15T18:36:43.335Z,10.50
2019-03-15T18:39:24.868Z,10.20
2019-03-15T18:42:06.476Z,10.40
2019-03-15T18:44:47.294Z,10.00
2019-03-15T18:47:28.736Z,9.90
2019-03-15T18:50:09.933Z,9.70
2019-03-15T18:52:51.719Z,9.60
2019-03-15T18:55:32.885Z,9.60
2019-03-15T18:58:14.401Z,9.50
2019-03-15T19:00:55.234Z,9.60
2019-03-15T19:03:37.057Z,9.50
2019-03-15T19:06:18.380Z,9.50
2019-03-15T19:08:59.765Z,9.60
2019-03-15T19:11:41.145Z,9.70
2019-03-15T19:14:21.869Z,9.60
2019-03-15T19:17:02.862Z,9.60
2019-03-15T19:19:43.959Z,9.50
2019-03-15T19:22:25.097Z,9.50
2019-03-15T19:25:06.066Z,9.60
2019-03-15T19:27:47.333Z,9.50
2019-03-15T19:30:28.899Z,9.70
2019-03-15T19:36:18.858Z,9.50
2019-03-15T19:38:59.733Z,9.60
2019-03-15T19:41:41.072Z,9.40
2019-03-15T19:44:22.487Z,9.30
2019-03-15T19:47:03.565Z,9.70
2019-03-15T19:49:44.709Z,9.20
2019-03-15T19:52:26.053Z,9.20
2019-03-15T19:55:05.951Z,9.70
2019-03-15T19:57:54.582Z,9.60
2019-03-15T20:00:55.102Z,9.60
2019-03-15T20:10:01.007Z,9.20
2019-03-15T20:15:57.369Z,9.30
2019-03-15T20:18:35.835Z,9.10
2019-03-15T20:24:36.692Z,9.20
2019-03-15T20:27:25.638Z,9.10
2019-03-15T20:45:03.607Z,9.20
2019-03-15T20:47:52.267Z,9.10
2019-03-15T20:50:52.673Z,9.10
2019-03-15T20:53:45.600Z,9.30
2019-03-15T20:56:14.582Z,9.00
2019-03-15T20:58:55.541Z,9.10
2019-03-15T21:01:36.386Z,9.20
2019-03-15T21:04:16.667Z,9.20
2019-03-15T21:07:16.819Z,9.10
2019-03-15T21:09:55.559Z,9.10
2019-03-15T21:15:53.477Z,9.20
2019-03-15T21:21:51.638Z,9.10
2019-03-15T21:27:54.206Z,9.30
2019-03-15T21:33:48.321Z,9.70
2019-03-15T21:36:50.949Z,9.40
2019-03-15T21:39:27.648Z,9.70
2019-03-15T21:42:16.376Z,9.60
2019-03-15T21:53:51.374Z,9.80
2019-03-15T21:56:32.537Z,9.50
2019-03-15T21:59:13.563Z,10.00
2019-03-15T22:01:55.312Z,9.50
2019-03-15T22:04:36.346Z,9.60
2019-03-15T22:07:17.546Z,9.60
2019-03-15T22:09:58.971Z,9.60
2019-03-15T22:12:40.477Z,9.60
2019-03-15T22:15:22.114Z,9.60
2019-03-15T22:18:03.521Z,9.60
2019-03-15T22:20:45.033Z,9.60
2019-03-15T22:23:26.476Z,9.70
2019-03-15T22:26:08.113Z,9.50
2019-03-15T22:28:49.610Z,9.60
2019-03-15T22:31:31.185Z,9.70
2019-03-15T22:34:12.440Z,9.50
2019-03-15T22:36:52.187Z,9.60
2019-03-15T22:39:40.865Z,9.70
2019-03-15T22:45:25.798Z,10.00
2019-03-15T22:48:14.443Z,9.70
2019-03-15T22:54:12.793Z,9.50
2019-03-15T22:56:53.696Z,9.50
2019-03-15T22:59:35.145Z,9.50
2019-03-15T23:02:16.391Z,9.80
2019-03-15T23:04:58.057Z,9.50
2019-03-15T23:07:39.652Z,9.40
2019-03-15T23:10:21.060Z,9.40
2019-03-15T23:13:02.687Z,9.20
2019-03-15T23:15:43.562Z,9.40
2019-03-15T23:18:25.450Z,9.50
2019-03-15T23:21:07.212Z,9.60
2019-03-15T23:23:48.712Z,9.50
2019-03-15T23:26:30.312Z,9.50
2019-03-15T23:29:11.742Z,9.40
2019-03-15T23:31:53.289Z,9.50
2019-03-15T23:34:33.230Z,9.50
2019-03-15T23:43:13.416Z,9.30
2019-03-15T23:46:02.342Z,9.30
2019-03-15T23:48:57.671Z,9.20
2019-03-15T23:51:46.263Z,9.30
2019-03-15T23:57:30.472Z,9.20
